sensor_id;sensor_type;location;lat;lon;timestamp;temperature;humidity
74155;DHT22;62509;46.248;6.018;2024-03-25T00:02:48;6.70;61.90
74155;DHT22;62509;46.248;6.018;2024-03-25T00:07:50;6.50;62.00
74155;DHT22;62509;46.248;6.018;2024-03-25T00:12:53;6.50;62.00
74155;DHT22;62509;46.248;6.018;2024-03-25T00:17:57;6.40;61.90
74155;DHT22;62509;46.248;6.018;2024-03-25T00:22:59;6.30;61.90
74155;DHT22;62509;46.248;6.018;2024-03-25T00:28:03;6.30;62.00
74155;DHT22;62509;46.248;6.018;2024-03-25T00:33:05;6.30;62.10
74155;DHT22;62509;46.248;6.018;2024-03-25T00:38:08;6.20;61.90
74155;DHT22;62509;46.248;6.018;2024-03-25T00:43:11;6.10;62.00
74155;DHT22;62509;46.248;6.018;2024-03-25T00:48:14;6.10;62.00
74155;DHT22;62509;46.248;6.018;2024-03-25T00:53:16;6.00;61.90
74155;DHT22;62509;46.248;6.018;2024-03-25T00:58:20;5.90;62.00
74155;DHT22;62509;46.248;6.018;2024-03-25T01:03:22;5.90;62.10
74155;DHT22;62509;46.248;6.018;2024-03-25T01:08:24;5.80;62.20
74155;DHT22;62509;46.248;6.018;2024-03-25T01:13:28;5.80;62.20
74155;DHT22;62509;46.248;6.018;2024-03-25T01:18:30;5.80;62.10
74155;DHT22;62509;46.248;6.018;2024-03-25T01:23:32;5.90;62.00
74155;DHT22;62509;46.248;6.018;2024-03-25T01:28:36;5.90;61.90
74155;DHT22;62509;46.248;6.018;2024-03-25T01:33:38;5.90;62.00
74155;DHT22;62509;46.248;6.018;2024-03-25T01:38:41;5.80;62.00
74155;DHT22;62509;46.248;6.018;2024-03-25T01:43:44;5.70;62.00
74155;DHT22;62509;46.248;6.018;2024-03-25T01:48:46;5.70;61.90
74155;DHT22;62509;46.248;6.018;2024-03-25T01:53:50;5.70;61.90
74155;DHT22;62509;46.248;6.018;2024-03-25T01:58:55;5.50;62.00
74155;DHT22;62509;46.248;6.018;2024-03-25T02:03:57;5.40;62.00
74155;DHT22;62509;46.248;6.018;2024-03-25T02:08:59;5.40;62.00
74155;DHT22;62509;46.248;6.018;2024-03-25T02:14:05;5.40;62.00
74155;DHT22;62509;46.248;6.018;2024-03-25T02:19:08;5.40;62.00
74155;DHT22;62509;46.248;6.018;2024-03-25T02:24:11;5.40;61.90
74155;DHT22;62509;46.248;6.018;2024-03-25T02:29:15;5.40;62.00
74155;DHT22;62509;46.248;6.018;2024-03-25T02:34:17;5.30;61.90
74155;DHT22;62509;46.248;6.018;2024-03-25T02:39:20;5.20;62.00
74155;DHT22;62509;46.248;6.018;2024-03-25T02:44:23;5.10;62.00
74155;DHT22;62509;46.248;6.018;2024-03-25T02:49:26;5.10;62.10
74155;DHT22;62509;46.248;6.018;2024-03-25T02:54:28;5.10;62.00
74155;DHT22;62509;46.248;6.018;2024-03-25T02:59:31;5.20;62.00
74155;DHT22;62509;46.248;6.018;2024-03-25T03:04:34;5.20;62.00
74155;DHT22;62509;46.248;6.018;2024-03-25T03:09:36;5.20;61.80
74155;DHT22;62509;46.248;6.018;2024-03-25T03:14:39;5.10;61.80
74155;DHT22;62509;46.248;6.018;2024-03-25T03:19:41;5.20;61.90
74155;DHT22;62509;46.248;6.018;2024-03-25T03:24:44;5.20;61.80
74155;DHT22;62509;46.248;6.018;2024-03-25T03:29:47;5.10;61.70
74155;DHT22;62509;46.248;6.018;2024-03-25T03:34:50;5.00;61.60
74155;DHT22;62509;46.248;6.018;2024-03-25T03:39:52;4.70;61.70
74155;DHT22;62509;46.248;6.018;2024-03-25T03:44:55;4.40;62.00
74155;DHT22;62509;46.248;6.018;2024-03-25T03:49:58;4.30;62.30
74155;DHT22;62509;46.248;6.018;2024-03-25T03:55:00;4.30;62.30
74155;DHT22;62509;46.248;6.018;2024-03-25T04:00:04;4.20;62.40
74155;DHT22;62509;46.248;6.018;2024-03-25T04:05:07;4.10;62.40
74155;DHT22;62509;46.248;6.018;2024-03-25T04:10:09;4.20;62.40
74155;DHT22;62509;46.248;6.018;2024-03-25T04:15:13;4.40;62.20
74155;DHT22;62509;46.248;6.018;2024-03-25T04:20:19;4.50;62.20
74155;DHT22;62509;46.248;6.018;2024-03-25T04:25:22;4.50;62.10
74155;DHT22;62509;46.248;6.018;2024-03-25T04:30:25;4.60;62.10
74155;DHT22;62509;46.248;6.018;2024-03-25T04:35:28;4.60;62.00
74155;DHT22;62509;46.248;6.018;2024-03-25T04:40:30;4.70;62.00
74155;DHT22;62509;46.248;6.018;2024-03-25T04:45:32;4.70;62.00
74155;DHT22;62509;46.248;6.018;2024-03-25T04:50:34;4.70;61.90
74155;DHT22;62509;46.248;6.018;2024-03-25T04:55:35;4.70;61.90
74155;DHT22;62509;46.248;6.018;2024-03-25T05:00:37;4.80;61.80
74155;DHT22;62509;46.248;6.018;2024-03-25T05:05:39;4.70;61.80
74155;DHT22;62509;46.248;6.018;2024-03-25T05:10:40;4.70;61.80
74155;DHT22;62509;46.248;6.018;2024-03-25T05:15:50;4.70;61.80
74155;DHT22;62509;46.248;6.018;2024-03-25T05:20:51;4.70;62.00
74155;DHT22;62509;46.248;6.018;2024-03-25T05:25:52;4.70;62.00
74155;DHT22;62509;46.248;6.018;2024-03-25T05:30:55;4.70;61.90
74155;DHT22;62509;46.248;6.018;2024-03-25T05:35:56;4.70;61.90
74155;DHT22;62509;46.248;6.018;2024-03-25T05:40:58;4.70;62.00
74155;DHT22;62509;46.248;6.018;2024-03-25T05:46:02;4.70;61.90
74155;DHT22;62509;46.248;6.018;2024-03-25T05:51:04;4.70;61.90
74155;DHT22;62509;46.248;6.018;2024-03-25T05:56:06;4.80;61.90
74155;DHT22;62509;46.248;6.018;2024-03-25T06:01:08;4.80;61.80
74155;DHT22;62509;46.248;6.018;2024-03-25T06:06:10;4.70;61.90
74155;DHT22;62509;46.248;6.018;2024-03-25T06:11:11;4.70;62.00
74155;DHT22;62509;46.248;6.018;2024-03-25T06:16:14;4.80;62.10
74155;DHT22;62509;46.248;6.018;2024-03-25T06:21:15;4.90;62.00
74155;DHT22;62509;46.248;6.018;2024-03-25T06:26:16;5.00;62.10
74155;DHT22;62509;46.248;6.018;2024-03-25T06:31:19;5.10;62.10
74155;DHT22;62509;46.248;6.018;2024-03-25T06:36:39;5.20;62.10
74155;DHT22;62509;46.248;6.018;2024-03-25T06:41:40;5.40;62.10
74155;DHT22;62509;46.248;6.018;2024-03-25T06:46:43;5.50;62.00
74155;DHT22;62509;46.248;6.018;2024-03-25T06:51:44;5.70;62.00
74155;DHT22;62509;46.248;6.018;2024-03-25T06:56:45;5.80;61.90
74155;DHT22;62509;46.248;6.018;2024-03-25T07:01:48;5.90;61.80
74155;DHT22;62509;46.248;6.018;2024-03-25T07:06:49;5.90;61.70
74155;DHT22;62509;46.248;6.018;2024-03-25T07:11:50;5.90;61.80
74155;DHT22;62509;46.248;6.018;2024-03-25T07:16:53;6.00;61.90
74155;DHT22;62509;46.248;6.018;2024-03-25T07:21:54;6.00;61.70
74155;DHT22;62509;46.248;6.018;2024-03-25T07:26:55;6.00;61.80
74155;DHT22;62509;46.248;6.018;2024-03-25T07:31:58;6.10;61.90
74155;DHT22;62509;46.248;6.018;2024-03-25T07:36:59;6.20;61.90
74155;DHT22;62509;46.248;6.018;2024-03-25T07:42:00;6.40;61.90
74155;DHT22;62509;46.248;6.018;2024-03-25T07:47:03;6.50;61.80
74155;DHT22;62509;46.248;6.018;2024-03-25T07:52:05;6.60;61.80
74155;DHT22;62509;46.248;6.018;2024-03-25T07:57:06;6.70;61.80
74155;DHT22;62509;46.248;6.018;2024-03-25T08:02:09;6.80;61.80
74155;DHT22;62509;46.248;6.018;2024-03-25T08:07:10;6.90;61.70
74155;DHT22;62509;46.248;6.018;2024-03-25T08:12:11;7.10;61.80
74155;DHT22;62509;46.248;6.018;2024-03-25T08:17:14;7.30;61.80
74155;DHT22;62509;46.248;6.018;2024-03-25T08:22:15;7.40;61.60
74155;DHT22;62509;46.248;6.018;2024-03-25T08:27:16;7.60;61.70
74155;DHT22;62509;46.248;6.018;2024-03-25T08:32:19;7.70;61.70
74155;DHT22;62509;46.248;6.018;2024-03-25T08:37:20;7.90;61.70
74155;DHT22;62509;46.248;6.018;2024-03-25T08:42:21;8.10;61.70
74155;DHT22;62509;46.248;6.018;2024-03-25T08:47:24;8.30;61.70
74155;DHT22;62509;46.248;6.018;2024-03-25T08:52:25;8.30;61.60
74155;DHT22;62509;46.248;6.018;2024-03-25T08:57:27;8.50;61.50
74155;DHT22;62509;46.248;6.018;2024-03-25T09:02:29;8.50;61.50
74155;DHT22;62509;46.248;6.018;2024-03-25T09:07:31;8.50;61.50
74155;DHT22;62509;46.248;6.018;2024-03-25T09:12:32;8.60;61.50
74155;DHT22;62509;46.248;6.018;2024-03-25T09:17:34;8.70;61.40
74155;DHT22;62509;46.248;6.018;2024-03-25T09:22:36;8.70;61.40
74155;DHT22;62509;46.248;6.018;2024-03-25T09:27:37;8.80;61.40
74155;DHT22;62509;46.248;6.018;2024-03-25T09:32:40;9.00;61.50
74155;DHT22;62509;46.248;6.018;2024-03-25T09:37:41;9.10;61.30
74155;DHT22;62509;46.248;6.018;2024-03-25T09:42:46;9.30;61.30
74155;DHT22;62509;46.248;6.018;2024-03-25T09:47:49;9.40;61.20
74155;DHT22;62509;46.248;6.018;2024-03-25T09:52:52;9.50;61.10
74155;DHT22;62509;46.248;6.018;2024-03-25T09:57:53;9.60;61.30
74155;DHT22;62509;46.248;6.018;2024-03-25T10:02:56;9.70;61.10
74155;DHT22;62509;46.248;6.018;2024-03-25T10:07:57;9.70;61.10
74155;DHT22;62509;46.248;6.018;2024-03-25T10:12:58;9.80;61.10
74155;DHT22;62509;46.248;6.018;2024-03-25T10:18:01;10.00;61.00
74155;DHT22;62509;46.248;6.018;2024-03-25T10:23:02;10.00;61.00
74155;DHT22;62509;46.248;6.018;2024-03-25T10:28:04;10.10;61.10
74155;DHT22;62509;46.248;6.018;2024-03-25T10:33:07;10.10;61.00
74155;DHT22;62509;46.248;6.018;2024-03-25T10:38:09;10.20;61.10
74155;DHT22;62509;46.248;6.018;2024-03-25T10:43:11;10.30;61.10
74155;DHT22;62509;46.248;6.018;2024-03-25T10:48:14;10.50;61.00
74155;DHT22;62509;46.248;6.018;2024-03-25T10:53:17;10.60;60.90
74155;DHT22;62509;46.248;6.018;2024-03-25T10:58:19;10.70;61.30
74155;DHT22;62509;46.248;6.018;2024-03-25T11:03:22;10.70;60.80
74155;DHT22;62509;46.248;6.018;2024-03-25T11:08:29;10.80;60.90
74155;DHT22;62509;46.248;6.018;2024-03-25T11:13:31;10.90;60.90
74155;DHT22;62509;46.248;6.018;2024-03-25T11:18:34;10.90;60.80
74155;DHT22;62509;46.248;6.018;2024-03-25T11:23:36;11.10;60.90
74155;DHT22;62509;46.248;6.018;2024-03-25T11:28:38;11.10;60.80
74155;DHT22;62509;46.248;6.018;2024-03-25T11:33:41;11.10;60.80
74155;DHT22;62509;46.248;6.018;2024-03-25T11:38:42;11.00;61.00
74155;DHT22;62509;46.248;6.018;2024-03-25T11:43:43;11.10;61.10
74155;DHT22;62509;46.248;6.018;2024-03-25T11:48:46;11.20;61.10
74155;DHT22;62509;46.248;6.018;2024-03-25T11:53:47;11.30;61.10
74155;DHT22;62509;46.248;6.018;2024-03-25T11:58:48;11.30;60.90
74155;DHT22;62509;46.248;6.018;2024-03-25T12:03:51;11.50;61.00
74155;DHT22;62509;46.248;6.018;2024-03-25T12:08:52;11.70;60.90
74155;DHT22;62509;46.248;6.018;2024-03-25T12:14:08;11.80;60.70
74155;DHT22;62509;46.248;6.018;2024-03-25T12:19:11;11.90;60.70
74155;DHT22;62509;46.248;6.018;2024-03-25T12:24:12;11.90;60.60
74155;DHT22;62509;46.248;6.018;2024-03-25T12:29:14;12.00;60.60
74155;DHT22;62509;46.248;6.018;2024-03-25T12:34:16;11.90;60.50
74155;DHT22;62509;46.248;6.018;2024-03-25T12:39:18;12.00;60.60
74155;DHT22;62509;46.248;6.018;2024-03-25T12:44:19;12.00;60.50
74155;DHT22;62509;46.248;6.018;2024-03-25T12:49:22;12.00;60.50
74155;DHT22;62509;46.248;6.018;2024-03-25T12:54:23;12.10;60.50
74155;DHT22;62509;46.248;6.018;2024-03-25T12:59:25;12.10;60.50
74155;DHT22;62509;46.248;6.018;2024-03-25T13:04:27;12.10;60.50
74155;DHT22;62509;46.248;6.018;2024-03-25T13:09:29;12.10;60.40
74155;DHT22;62509;46.248;6.018;2024-03-25T13:14:30;12.10;60.40
74155;DHT22;62509;46.248;6.018;2024-03-25T13:19:33;12.10;60.50
74155;DHT22;62509;46.248;6.018;2024-03-25T13:24:34;12.20;60.50
74155;DHT22;62509;46.248;6.018;2024-03-25T13:29:35;12.30;60.50
74155;DHT22;62509;46.248;6.018;2024-03-25T13:34:38;12.50;60.40
74155;DHT22;62509;46.248;6.018;2024-03-25T13:39:40;12.60;60.30
74155;DHT22;62509;46.248;6.018;2024-03-25T13:44:41;12.70;60.70
74155;DHT22;62509;46.248;6.018;2024-03-25T13:49:43;12.70;60.20
74155;DHT22;62509;46.248;6.018;2024-03-25T13:54:45;12.80;60.30
74155;DHT22;62509;46.248;6.018;2024-03-25T13:59:46;12.80;60.10
74155;DHT22;62509;46.248;6.018;2024-03-25T14:04:49;12.70;60.20
74155;DHT22;62509;46.248;6.018;2024-03-25T14:09:50;12.70;60.30
74155;DHT22;62509;46.248;6.018;2024-03-25T14:14:51;12.70;60.30
74155;DHT22;62509;46.248;6.018;2024-03-25T14:19:55;12.90;60.30
74155;DHT22;62509;46.248;6.018;2024-03-25T14:24:57;12.90;60.20
74155;DHT22;62509;46.248;6.018;2024-03-25T14:29:58;12.90;60.10
74155;DHT22;62509;46.248;6.018;2024-03-25T14:35:01;13.00;60.20
74155;DHT22;62509;46.248;6.018;2024-03-25T14:40:02;13.00;60.20
74155;DHT22;62509;46.248;6.018;2024-03-25T14:45:04;13.00;60.20
74155;DHT22;62509;46.248;6.018;2024-03-25T14:50:08;13.00;60.10
74155;DHT22;62509;46.248;6.018;2024-03-25T14:55:09;13.00;60.00
74155;DHT22;62509;46.248;6.018;2024-03-25T15:00:11;13.00;60.10
74155;DHT22;62509;46.248;6.018;2024-03-25T15:05:14;13.00;60.10
74155;DHT22;62509;46.248;6.018;2024-03-25T15:10:16;13.10;60.00
74155;DHT22;62509;46.248;6.018;2024-03-25T15:15:17;13.10;59.90
74155;DHT22;62509;46.248;6.018;2024-03-25T15:20:20;13.10;59.90
74155;DHT22;62509;46.248;6.018;2024-03-25T15:25:21;13.10;59.90
74155;DHT22;62509;46.248;6.018;2024-03-25T15:30:22;13.10;59.90
74155;DHT22;62509;46.248;6.018;2024-03-25T15:35:25;13.20;59.90
74155;DHT22;62509;46.248;6.018;2024-03-25T15:40:27;13.20;59.80
74155;DHT22;62509;46.248;6.018;2024-03-25T15:45:28;13.10;59.80
74155;DHT22;62509;46.248;6.018;2024-03-25T15:50:31;13.10;59.80
74155;DHT22;62509;46.248;6.018;2024-03-25T15:55:32;13.10;59.80
74155;DHT22;62509;46.248;6.018;2024-03-25T16:00:34;13.00;59.70
74155;DHT22;62509;46.248;6.018;2024-03-25T16:05:36;13.00;59.80
74155;DHT22;62509;46.248;6.018;2024-03-25T16:10:38;13.10;59.80
74155;DHT22;62509;46.248;6.018;2024-03-25T16:15:39;13.10;59.80
74155;DHT22;62509;46.248;6.018;2024-03-25T16:20:42;13.00;59.70
74155;DHT22;62509;46.248;6.018;2024-03-25T16:25:43;13.00;59.60
74155;DHT22;62509;46.248;6.018;2024-03-25T16:30:44;13.10;59.70
74155;DHT22;62509;46.248;6.018;2024-03-25T16:35:47;13.00;59.60
74155;DHT22;62509;46.248;6.018;2024-03-25T16:40:48;13.00;59.60
74155;DHT22;62509;46.248;6.018;2024-03-25T16:45:50;13.10;59.70
74155;DHT22;62509;46.248;6.018;2024-03-25T16:50:52;13.00;59.60
74155;DHT22;62509;46.248;6.018;2024-03-25T16:55:54;13.00;59.60
74155;DHT22;62509;46.248;6.018;2024-03-25T17:00:55;12.90;59.50
74155;DHT22;62509;46.248;6.018;2024-03-25T17:05:58;12.80;59.50
74155;DHT22;62509;46.248;6.018;2024-03-25T17:10:59;12.80;59.60
74155;DHT22;62509;46.248;6.018;2024-03-25T17:16:00;12.70;59.60
74155;DHT22;62509;46.248;6.018;2024-03-25T17:21:03;12.70;59.50
74155;DHT22;62509;46.248;6.018;2024-03-25T17:26:04;12.70;59.50
74155;DHT22;62509;46.248;6.018;2024-03-25T17:31:06;12.60;59.50
74155;DHT22;62509;46.248;6.018;2024-03-25T17:36:09;12.60;59.60
74155;DHT22;62509;46.248;6.018;2024-03-25T17:41:10;12.50;59.60
74155;DHT22;62509;46.248;6.018;2024-03-25T17:46:11;12.50;59.70
74155;DHT22;62509;46.248;6.018;2024-03-25T17:51:14;12.50;59.70
74155;DHT22;62509;46.248;6.018;2024-03-25T17:56:15;12.50;59.70
74155;DHT22;62509;46.248;6.018;2024-03-25T18:01:16;12.50;59.60
74155;DHT22;62509;46.248;6.018;2024-03-25T18:06:19;12.40;59.60
74155;DHT22;62509;46.248;6.018;2024-03-25T18:11:21;12.40;59.60
74155;DHT22;62509;46.248;6.018;2024-03-25T18:16:22;12.40;59.60
74155;DHT22;62509;46.248;6.018;2024-03-25T18:21:25;12.30;59.50
74155;DHT22;62509;46.248;6.018;2024-03-25T18:26:26;12.30;59.50
74155;DHT22;62509;46.248;6.018;2024-03-25T18:31:27;12.30;59.50
74155;DHT22;62509;46.248;6.018;2024-03-25T18:36:30;12.20;59.40
74155;DHT22;62509;46.248;6.018;2024-03-25T18:41:31;12.10;59.40
74155;DHT22;62509;46.248;6.018;2024-03-25T18:46:33;12.00;59.40
74155;DHT22;62509;46.248;6.018;2024-03-25T18:51:35;12.00;59.50
74155;DHT22;62509;46.248;6.018;2024-03-25T18:56:36;11.90;59.50
74155;DHT22;62509;46.248;6.018;2024-03-25T19:01:38;12.00;59.50
74155;DHT22;62509;46.248;6.018;2024-03-25T19:06:40;11.90;59.50
74155;DHT22;62509;46.248;6.018;2024-03-25T19:11:42;11.90;59.50
74155;DHT22;62509;46.248;6.018;2024-03-25T19:16:43;11.80;59.50
74155;DHT22;62509;46.248;6.018;2024-03-25T19:21:45;11.80;59.60
74155;DHT22;62509;46.248;6.018;2024-03-25T19:26:47;11.70;59.70
74155;DHT22;62509;46.248;6.018;2024-03-25T19:31:48;11.70;59.70
74155;DHT22;62509;46.248;6.018;2024-03-25T19:36:51;11.70;59.70
74155;DHT22;62509;46.248;6.018;2024-03-25T19:41:52;11.60;59.60
74155;DHT22;62509;46.248;6.018;2024-03-25T19:46:53;11.60;59.60
74155;DHT22;62509;46.248;6.018;2024-03-25T19:51:56;11.50;59.60
74155;DHT22;62509;46.248;6.018;2024-03-25T19:56:57;11.50;59.60
74155;DHT22;62509;46.248;6.018;2024-03-25T20:01:58;11.50;59.60
74155;DHT22;62509;46.248;6.018;2024-03-25T20:07:01;11.40;59.60
74155;DHT22;62509;46.248;6.018;2024-03-25T20:12:03;11.40;59.60
74155;DHT22;62509;46.248;6.018;2024-03-25T20:17:04;11.40;59.60
74155;DHT22;62509;46.248;6.018;2024-03-25T20:22:07;11.40;59.70
74155;DHT22;62509;46.248;6.018;2024-03-25T20:27:08;11.30;59.70
74155;DHT22;62509;46.248;6.018;2024-03-25T20:32:10;11.20;59.70
74155;DHT22;62509;46.248;6.018;2024-03-25T20:37:13;11.20;59.80
74155;DHT22;62509;46.248;6.018;2024-03-25T20:42:14;11.10;59.90
74155;DHT22;62509;46.248;6.018;2024-03-25T20:47:15;11.00;59.90
74155;DHT22;62509;46.248;6.018;2024-03-25T20:52:18;11.00;60.00
74155;DHT22;62509;46.248;6.018;2024-03-25T20:57:19;10.90;60.10
74155;DHT22;62509;46.248;6.018;2024-03-25T21:02:20;11.00;60.00
74155;DHT22;62509;46.248;6.018;2024-03-25T21:07:23;11.00;60.00
74155;DHT22;62509;46.248;6.018;2024-03-25T21:12:24;11.00;59.90
74155;DHT22;62509;46.248;6.018;2024-03-25T21:17:25;11.00;59.80
74155;DHT22;62509;46.248;6.018;2024-03-25T21:22:28;11.00;59.70
74155;DHT22;62509;46.248;6.018;2024-03-25T21:27:29;11.00;59.70
74155;DHT22;62509;46.248;6.018;2024-03-25T21:32:30;11.00;59.70
74155;DHT22;62509;46.248;6.018;2024-03-25T21:37:33;10.80;59.70
74155;DHT22;62509;46.248;6.018;2024-03-25T21:42:34;10.80;59.80
74155;DHT22;62509;46.248;6.018;2024-03-25T21:47:36;10.80;59.80
74155;DHT22;62509;46.248;6.018;2024-03-25T21:52:38;10.80;59.80
74155;DHT22;62509;46.248;6.018;2024-03-25T21:57:39;10.80;59.80
74155;DHT22;62509;46.248;6.018;2024-03-25T22:02:41;10.80;59.80
74155;DHT22;62509;46.248;6.018;2024-03-25T22:07:43;10.80;59.80
74155;DHT22;62509;46.248;6.018;2024-03-25T22:12:44;10.80;59.80
74155;DHT22;62509;46.248;6.018;2024-03-25T22:17:46;10.60;59.90
74155;DHT22;62509;46.248;6.018;2024-03-25T22:22:49;10.50;59.80
74155;DHT22;62509;46.248;6.018;2024-03-25T22:27:50;10.40;60.10
74155;DHT22;62509;46.248;6.018;2024-03-25T22:32:51;10.30;60.10
74155;DHT22;62509;46.248;6.018;2024-03-25T22:37:54;10.30;60.10
74155;DHT22;62509;46.248;6.018;2024-03-25T22:42:55;10.30;60.10
74155;DHT22;62509;46.248;6.018;2024-03-25T22:47:56;10.40;60.10
74155;DHT22;62509;46.248;6.018;2024-03-25T22:52:59;10.30;60.10
74155;DHT22;62509;46.248;6.018;2024-03-25T22:58:00;10.20;60.20
74155;DHT22;62509;46.248;6.018;2024-03-25T23:03:02;10.20;60.30
74155;DHT22;62509;46.248;6.018;2024-03-25T23:08:04;10.20;60.30
74155;DHT22;62509;46.248;6.018;2024-03-25T23:13:06;10.20;60.30
74155;DHT22;62509;46.248;6.018;2024-03-25T23:18:07;10.30;60.70
74155;DHT22;62509;46.248;6.018;2024-03-25T23:23:10;10.20;60.20
74155;DHT22;62509;46.248;6.018;2024-03-25T23:28:12;10.20;60.20
74155;DHT22;62509;46.248;6.018;2024-03-25T23:33:14;10.20;60.20
74155;DHT22;62509;46.248;6.018;2024-03-25T23:38:16;10.10;60.20
74155;DHT22;62509;46.248;6.018;2024-03-25T23:43:18;10.20;60.30
74155;DHT22;62509;46.248;6.018;2024-03-25T23:48:19;10.20;60.30
74155;DHT22;62509;46.248;6.018;2024-03-25T23:53:22;10.20;60.30
74155;DHT22;62509;46.248;6.018;2024-03-25T23:58:23;10.20;60.30
